createdAt,value
2023-04-26T00:04:42.243Z,12.15
2023-04-26T00:09:45.095Z,12.16
2023-04-26T00:14:47.898Z,12.15
2023-04-26T00:19:53.980Z,12.16
2023-04-26T00:24:56.551Z,12.16
2023-04-26T00:29:59.059Z,12.16
2023-04-26T00:35:04.277Z,12.16
2023-04-26T00:40:07.599Z,12.09
2023-04-26T00:45:10.343Z,12.09
2023-04-26T00:50:32.789Z,12.09
2023-04-26T00:55:36.591Z,12.12
2023-04-26T01:00:39.329Z,12.06
2023-04-26T01:05:44.734Z,12.09
2023-04-26T01:10:50.428Z,12.07
2023-04-26T01:15:54.537Z,12.18
2023-04-26T01:21:00.576Z,12.21
2023-04-26T01:26:04.685Z,12.15
2023-04-26T01:31:07.789Z,12.21
2023-04-26T01:36:13.690Z,12.20
2023-04-26T01:41:16.414Z,12.25
2023-04-26T01:46:19.189Z,12.29
2023-04-26T01:51:22.018Z,12.30
2023-04-26T01:56:26.270Z,12.27
2023-04-26T02:01:29.464Z,12.30
2023-04-26T02:06:32.598Z,12.34
2023-04-26T02:11:35.249Z,12.35
2023-04-26T02:16:40.730Z,12.42
2023-04-26T02:22:00.587Z,12.40
2023-04-26T02:27:04.246Z,12.43
2023-04-26T02:32:06.933Z,12.42
2023-04-26T02:37:09.674Z,12.45
2023-04-26T02:42:14.817Z,12.46
2023-04-26T02:47:17.805Z,12.51
2023-04-26T02:52:20.971Z,12.54
2023-04-26T02:57:23.638Z,12.56
2023-04-26T03:02:26.764Z,12.62
2023-04-26T03:07:29.642Z,12.71
2023-04-26T03:12:33.220Z,12.72
2023-04-26T03:17:38.750Z,12.72
2023-04-26T03:22:41.522Z,12.90
2023-04-26T03:27:44.545Z,12.99
2023-04-26T03:32:47.264Z,13.00
2023-04-26T03:37:52.444Z,12.92
2023-04-26T03:42:57.293Z,12.94
2023-04-26T03:47:59.852Z,13.13
2023-04-26T03:53:03.042Z,13.16
2023-04-26T03:58:08.381Z,13.04
2023-04-26T04:03:12.601Z,13.04
2023-04-26T04:08:16.077Z,13.13
2023-04-26T04:13:18.898Z,13.14
2023-04-26T04:18:22.424Z,13.28
2023-04-26T04:23:25.055Z,13.69
2023-04-26T04:28:30.120Z,13.85
2023-04-26T04:33:33.084Z,14.11
2023-04-26T04:38:36.519Z,14.16
2023-04-26T04:43:41.070Z,14.26
2023-04-26T04:48:47.615Z,14.27
2023-04-26T04:53:53.692Z,14.24
2023-04-26T04:58:59.324Z,14.37
2023-04-26T05:04:02.383Z,14.53
2023-04-26T05:09:06.179Z,14.48
2023-04-26T05:14:09.408Z,14.61
2023-04-26T05:19:13.681Z,14.95
2023-04-26T05:24:16.698Z,15.11
2023-04-26T05:29:19.628Z,15.18
2023-04-26T05:34:48.889Z,15.17
2023-04-26T05:39:52.797Z,15.11
2023-04-26T05:44:59.527Z,14.95
2023-04-26T05:50:04.856Z,14.90
2023-04-26T05:55:09.277Z,14.99
2023-04-26T06:00:15.988Z,15.12
2023-04-26T06:05:20.940Z,15.17
2023-04-26T06:10:23.646Z,15.43
2023-04-26T06:15:27.963Z,15.45
2023-04-26T06:20:31.131Z,15.45
2023-04-26T06:25:34.503Z,15.37
2023-04-26T06:30:37.586Z,15.45
2023-04-26T06:35:41.702Z,15.47
2023-04-26T06:40:45.698Z,15.49
2023-04-26T06:45:50.023Z,15.59
2023-04-26T06:50:55.224Z,15.79
2023-04-26T06:55:58.509Z,15.94
2023-04-26T07:01:01.616Z,16.10
2023-04-26T07:06:05.285Z,16.06
2023-04-26T07:11:11.700Z,16.07
2023-04-26T07:16:15.376Z,16.45
2023-04-26T07:21:21.023Z,16.70
2023-04-26T07:26:24.601Z,16.89
2023-04-26T07:31:27.175Z,16.67
2023-04-26T07:36:29.717Z,16.82
2023-04-26T07:41:32.908Z,17.00
2023-04-26T07:46:35.426Z,17.20
2023-04-26T07:51:38.035Z,17.11
2023-04-26T07:56:40.640Z,17.22
2023-04-26T08:01:43.279Z,17.14
2023-04-26T08:06:48.829Z,17.33
2023-04-26T08:11:51.462Z,17.63
2023-04-26T08:16:54.773Z,17.88
2023-04-26T08:22:00.222Z,18.02
2023-04-26T08:27:02.873Z,17.97
2023-04-26T08:32:05.649Z,18.02
2023-04-26T08:37:08.590Z,18.16
2023-04-26T08:42:16.824Z,18.43
2023-04-26T08:47:38.090Z,18.54
2023-04-26T08:52:41.460Z,18.63
2023-04-26T08:57:47.796Z,18.69
2023-04-26T09:02:53.207Z,19.04
2023-04-26T09:08:04.745Z,19.43
2023-04-26T09:13:07.385Z,19.65
2023-04-26T09:18:22.251Z,19.33
2023-04-26T09:23:24.821Z,19.39
2023-04-26T09:28:27.628Z,19.74
2023-04-26T09:33:30.269Z,19.71
2023-04-26T09:44:03.791Z,19.96
2023-04-26T09:49:27.804Z,19.66
2023-04-26T09:55:04.691Z,20.05
2023-04-26T10:00:12.242Z,20.57
2023-04-26T10:05:18.068Z,20.73
2023-04-26T10:10:22.626Z,21.21
2023-04-26T10:15:25.358Z,21.59
2023-04-26T10:20:29.982Z,21.73
2023-04-26T10:25:40.334Z,21.54
2023-04-26T10:30:57.576Z,20.93
2023-04-26T10:36:14.159Z,21.28
2023-04-26T10:41:36.452Z,21.59
2023-04-26T10:46:40.425Z,21.52
2023-04-26T10:52:15.467Z,22.14
2023-04-26T10:57:21.723Z,24.87
2023-04-26T11:02:53.375Z,26.34
2023-04-26T11:08:09.300Z,27.38
2023-04-26T11:13:12.670Z,25.23
2023-04-26T11:18:20.120Z,24.47
2023-04-26T11:23:23.786Z,23.91
2023-04-26T11:28:26.625Z,26.32
2023-04-26T11:33:29.245Z,27.48
2023-04-26T11:38:31.972Z,27.80
2023-04-26T11:43:38.963Z,27.96
2023-04-26T11:48:41.958Z,27.85
2023-04-26T11:53:44.979Z,26.53
2023-04-26T11:58:52.908Z,28.47
2023-04-26T12:03:58.097Z,29.85
2023-04-26T12:09:08.503Z,26.93
2023-04-26T12:14:11.775Z,24.79
2023-04-26T12:19:14.439Z,25.14
2023-04-26T12:24:23.800Z,28.83
2023-04-26T12:29:26.891Z,26.13
2023-04-26T12:34:29.963Z,24.21
2023-04-26T12:39:35.620Z,24.62
2023-04-26T12:44:38.131Z,26.65
2023-04-26T12:49:40.627Z,24.95
2023-04-26T12:54:47.293Z,24.73
2023-04-26T12:59:49.721Z,24.65
2023-04-26T13:04:52.533Z,25.22
2023-04-26T13:09:55.319Z,24.25
2023-04-26T13:14:58.380Z,24.72
2023-04-26T13:20:01.091Z,24.43
2023-04-26T13:25:06.669Z,23.30
2023-04-26T13:30:09.857Z,22.75
2023-04-26T13:35:26.404Z,22.70
2023-04-26T13:40:29.257Z,23.79
2023-04-26T13:45:35.916Z,23.28
2023-04-26T13:50:38.542Z,24.03
2023-04-26T13:55:41.079Z,25.59
2023-04-26T14:00:43.576Z,23.73
2023-04-26T14:05:46.802Z,23.24
2023-04-26T14:10:51.557Z,26.27
2023-04-26T14:15:54.195Z,27.75
2023-04-26T14:20:56.935Z,26.93
2023-04-26T14:25:59.508Z,26.12
2023-04-26T14:31:05.012Z,27.63
2023-04-26T14:36:08.669Z,27.60
2023-04-26T14:41:17.681Z,26.44
2023-04-26T14:46:20.422Z,25.94
2023-04-26T14:51:23.046Z,26.17
2023-04-26T14:56:25.629Z,26.38
2023-04-26T15:01:28.595Z,25.22
2023-04-26T15:06:34.478Z,24.73
2023-04-26T15:11:37.289Z,24.06
2023-04-26T15:16:40.105Z,24.18
2023-04-26T15:21:42.779Z,24.87
2023-04-26T15:26:46.718Z,24.86
2023-04-26T15:31:49.347Z,24.15
2023-04-26T15:36:52.132Z,23.77
2023-04-26T15:41:54.653Z,23.32
2023-04-26T15:46:58.928Z,22.74
2023-04-26T15:52:01.525Z,21.80
2023-04-26T15:57:04.227Z,20.75
2023-04-26T16:02:07.424Z,20.01
2023-04-26T16:07:10.232Z,19.41
2023-04-26T16:12:12.794Z,18.93
2023-04-26T16:17:15.289Z,18.50
2023-04-26T16:22:21.498Z,18.16
2023-04-26T16:27:24.187Z,17.89
2023-04-26T16:32:26.990Z,17.63
2023-04-26T16:37:32.684Z,17.33
2023-04-26T16:42:35.257Z,17.16
2023-04-26T16:47:37.914Z,16.95
2023-04-26T16:52:40.746Z,16.81
2023-04-26T16:57:45.665Z,16.62
2023-04-26T17:02:49.915Z,16.45
2023-04-26T17:07:52.658Z,16.27
2023-04-26T17:12:55.589Z,16.04
2023-04-26T17:17:58.204Z,15.97
2023-04-26T17:23:01.900Z,15.83
2023-04-26T17:28:04.780Z,15.69
2023-04-26T17:33:10.998Z,15.60
2023-04-26T17:38:15.929Z,15.51
2023-04-26T17:43:19.491Z,15.39
2023-04-26T17:48:25.093Z,15.40
2023-04-26T17:53:27.648Z,15.36
2023-04-26T17:58:30.191Z,15.26
2023-04-26T18:03:36.002Z,15.20
2023-04-26T18:08:38.683Z,15.09
2023-04-26T18:13:41.369Z,14.94
2023-04-26T18:18:44.623Z,14.81
2023-04-26T18:23:47.403Z,14.70
2023-04-26T18:28:50.365Z,14.64
2023-04-26T18:33:53.095Z,14.57
2023-04-26T18:38:56.474Z,14.51
2023-04-26T18:43:59.108Z,14.43
2023-04-26T18:49:01.652Z,14.33
2023-04-26T18:54:04.414Z,14.24
2023-04-26T18:59:08.338Z,14.15
2023-04-26T19:04:10.994Z,14.11
2023-04-26T19:09:14.676Z,14.04
2023-04-26T19:14:17.537Z,13.85
2023-04-26T19:19:20.194Z,13.77
2023-04-26T19:24:22.833Z,13.47
2023-04-26T19:29:25.631Z,13.53
2023-04-26T19:34:28.195Z,13.43
2023-04-26T19:39:30.827Z,13.36
2023-04-26T19:44:33.419Z,13.28
2023-04-26T19:49:38.847Z,13.28
2023-04-26T19:54:47.174Z,13.20
2023-04-26T19:59:49.719Z,13.24
2023-04-26T20:04:52.567Z,13.19
2023-04-26T20:09:55.148Z,13.10
2023-04-26T20:14:57.879Z,13.07
2023-04-26T20:20:00.680Z,13.04
2023-04-26T20:25:05.061Z,13.04
2023-04-26T20:30:08.452Z,13.08
2023-04-26T20:35:13.165Z,13.13
2023-04-26T20:40:15.716Z,13.18
2023-04-26T20:45:18.332Z,13.21
2023-04-26T20:50:21.196Z,13.26
2023-04-26T20:55:23.756Z,13.25
2023-04-26T21:00:28.579Z,13.22
2023-04-26T21:05:31.209Z,13.12
2023-04-26T21:10:36.505Z,13.01
2023-04-26T21:15:39.142Z,12.85
2023-04-26T21:20:41.750Z,12.76
2023-04-26T21:25:46.461Z,12.67
2023-04-26T21:30:49.121Z,12.57
2023-04-26T21:35:51.588Z,12.50
2023-04-26T21:40:54.208Z,12.42
2023-04-26T21:45:58.586Z,12.43
2023-04-26T21:51:01.287Z,12.43
2023-04-26T21:56:05.954Z,12.45
2023-04-26T22:01:15.789Z,12.44
2023-04-26T22:06:18.404Z,12.47
2023-04-26T22:11:22.005Z,12.45
2023-04-26T22:16:24.736Z,12.37
2023-04-26T22:21:28.603Z,12.38
2023-04-26T22:26:34.323Z,12.40
2023-04-26T22:31:36.862Z,12.37
2023-04-26T22:36:40.040Z,12.42
2023-04-26T22:41:42.601Z,12.38
2023-04-26T22:46:45.084Z,12.40
2023-04-26T22:51:57.362Z,12.20
2023-04-26T22:57:05.824Z,12.33
2023-04-26T23:02:08.242Z,12.31
2023-04-26T23:07:10.818Z,12.28
2023-04-26T23:12:19.147Z,12.21
2023-04-26T23:17:21.696Z,12.15
2023-04-26T23:22:24.296Z,12.08
2023-04-26T23:27:26.881Z,12.07
2023-04-26T23:32:29.406Z,12.04
2023-04-26T23:37:32.590Z,12.00
2023-04-26T23:42:35.159Z,11.98
2023-04-26T23:47:37.656Z,11.92
2023-04-26T23:52:41.339Z,11.86
2023-04-26T23:58:02.506Z,11.72
